Airfield :
LOGIN :

Register | Disclaimer

   EN    FR    IT 

 










Legend :    VFR   Marginal VFR   IFR   Intensive IFR   Very Intensive IFR
Visi :
Ceiling :
>= 8 km
>= 3000ft
5 to 8 km
1000 to 3000 ft
1500m to 5 km
500 to 1000 ft
800 to 1500m
200 to 500 ft
< 800m
< 200 ft
Symbols :   Thunderstorms  Fog  Heavy snow  Heavy precipitations  Wind > 20 kt
SIGMETs :     Misc.  Thunderstorms  Icing  Turbulence  Mountain Waves  Volcanic Ashes






- Airport Elevation : 392 ft
- IATA code : CDG


LFPG - Paris-Aeroport Charles De Gaulle

CURRENT METAR :
  • 212100Z 17011KT 9999 SCT035 BKN053 08/05 Q1003 NOSIG

EXPIRED METARs :
  • 212030Z 17008KT CAVOK 08/05 Q1003 NOSIG
  • 212000Z 17009KT 9999 BKN038 08/05 Q1003 NOSIG
  • 211930Z 18010KT 9999 SCT014 BKN038 08/05 Q1003 NOSIG
  • 211900Z 17010KT 9999 BKN017 BKN024 08/05 Q1003 NOSIG
  • 211830Z 17009KT 9999 -RA BKN024 08/05 Q1003 NOSIG

TAF AMD TAF LFPG
Valid from the 21 at 18:00 until the 23 at 00:00 UTC


211805Z 2118/2224 17010G20KT 9999 BKN030 TX11/2214Z TN05/2207Z
TEMPO 2118/2123 SCT008 BKN012
PROB40
TEMPO 2118/2123 3000 -RA BKN008 BKN012 SCT020TCU
BECMG 2123/2201 BKN012
BECMG 2205/2207 NSC
TEMPO 2219/2224 13020G30KT
ATIS : +33 1 48 62 10 92



MET'MAP, your aeronautical weather chart ! - Copyright ORBIFLY December 2007 - Disclaimer

ORBIFLY MET'MAP TEAM :

Programming & Development : Alexandra Zaïnal
Concept & Development : Baudouin d'Aumeries
Co-Development & Prog : Marc-Olivier Méhu
Technical & hardware support : Manuel Goepfert

Contact : metmap@orbifly.com




SOURCES & CREDITS :

   NOAA